Time;durP1;ratioP1;P1;durP2;ratioP2;P2;SDS_P1;SDS_P2;PMS_P1;PMS_P2;Temp;Humidity;BMP_temperature;BMP_pressure;BME280_temperature;BME280_humidity;BME280_pressure;Samples;Min_cycle;Max_cycle;Signal;HPM_P1;HPM_P2
2023/12/02 00:00:55;;;;;;;5.03;2.30;;;25.40;99.90;;;;;;5013940;28;20170;-73
2023/12/02 00:03:23;;;;;;;5.93;2.57;;;25.40;99.90;;;;;;5014231;28;20333;-73
2023/12/02 00:05:51;;;;;;;11.63;2.53;;;25.70;99.90;;;;;;5013921;28;20257;-72
2023/12/02 00:08:18;;;;;;;9.53;2.37;;;25.80;99.90;;;;;;5014162;28;20181;-73
2023/12/02 00:10:47;;;;;;;6.40;2.80;;;25.90;99.90;;;;;;5014112;28;20229;-72
2023/12/02 00:13:14;;;;;;;3.37;2.27;;;26.40;99.90;;;;;;5014031;28;20234;-73
2023/12/02 00:15:42;;;;;;;6.07;2.33;;;26.00;99.90;;;;;;5013965;28;20188;-72
2023/12/02 00:21:33;;;;;;;5.77;2.33;;;26.30;99.90;;;;;;5010946;28;20710;-73
2023/12/02 00:24:01;;;;;;;5.90;2.13;;;26.40;99.90;;;;;;5011762;28;20268;-72
2023/12/02 00:26:29;;;;;;;9.77;3.03;;;26.50;99.90;;;;;;5011603;28;20245;-72
2023/12/02 00:28:58;;;;;;;4.67;2.70;;;26.30;99.90;;;;;;5011651;28;20221;-72
2023/12/02 00:31:26;;;;;;;6.87;1.93;;;26.60;99.90;;;;;;5011419;28;20221;-72
2023/12/02 00:33:53;;;;;;;4.23;2.17;;;26.80;99.90;;;;;;5011726;28;20185;-72
2023/12/02 00:36:21;;;;;;;6.93;1.90;;;26.90;99.90;;;;;;5011371;28;20271;-73
2023/12/02 00:38:49;;;;;;;7.30;2.10;;;26.90;99.90;;;;;;5011561;28;20655;-73
2023/12/02 00:41:16;;;;;;;5.00;2.10;;;26.80;99.90;;;;;;5011473;28;20277;-72
2023/12/02 00:43:44;;;;;;;5.33;2.23;;;27.00;99.90;;;;;;5011537;28;20189;-72
2023/12/02 00:46:12;;;;;;;5.57;2.03;;;27.10;99.90;;;;;;5011586;28;20189;-73
2023/12/02 00:48:39;;;;;;;3.57;2.00;;;27.20;99.90;;;;;;5010481;28;20177;-72
2023/12/02 00:51:07;;;;;;;5.57;1.97;;;27.10;99.90;;;;;;5011774;28;20191;-73
2023/12/02 00:53:35;;;;;;;4.70;2.00;;;27.20;99.90;;;;;;5011690;28;20186;-73
2023/12/02 00:59:24;;;;;;;4.30;1.80;;;27.10;99.90;;;;;;5010704;28;20189;-72
2023/12/02 01:01:52;;;;;;;3.53;1.60;;;27.50;99.90;;;;;;5011403;28;20186;-73
2023/12/02 01:04:21;;;;;;;4.37;1.60;;;27.50;99.90;;;;;;5011314;28;20182;-72
2023/12/02 01:06:48;;;;;;;6.40;1.60;;;27.80;99.90;;;;;;5011884;28;20177;-72
2023/12/02 01:09:16;;;;;;;3.67;1.83;;;28.50;99.90;;;;;;5011014;28;20224;-72
2023/12/02 01:11:44;;;;;;;4.67;1.83;;;28.40;99.90;;;;;;5010605;28;20255;-72
2023/12/02 01:14:11;;;;;;;6.87;1.80;;;28.00;99.90;;;;;;5013088;28;20220;-72
2023/12/02 01:16:39;;;;;;;3.77;1.67;;;27.60;99.90;;;;;;5013407;28;20198;-72
2023/12/02 01:19:07;;;;;;;2.67;1.67;;;27.20;99.90;;;;;;5013037;28;20185;-72
2023/12/02 01:21:34;;;;;;;2.13;1.63;;;27.10;99.90;;;;;;5013267;28;20174;-72
2023/12/02 01:24:02;;;;;;;3.60;1.60;;;26.80;99.90;;;;;;5013048;28;20235;-73
2023/12/02 01:26:30;;;;;;;3.17;1.30;;;26.90;99.90;;;;;;5013149;28;20220;-73
2023/12/02 01:28:58;;;;;;;1.97;1.10;;;26.80;99.90;;;;;;5013067;28;20206;-72
2023/12/02 01:31:25;;;;;;;4.53;1.60;;;26.50;99.90;;;;;;5013435;28;20193;-72
2023/12/02 01:33:53;;;;;;;2.83;1.40;;;26.40;99.90;;;;;;5013261;28;20208;-72
2023/12/02 01:36:21;;;;;;;3.83;1.23;;;26.10;99.90;;;;;;5013308;28;20662;-73
2023/12/02 01:38:49;;;;;;;5.70;1.33;;;26.00;99.90;;;;;;5012942;28;20214;-72
2023/12/02 01:41:16;;;;;;;3.33;1.73;;;25.90;99.90;;;;;;5012949;28;20184;-72
2023/12/02 01:43:44;;;;;;;4.73;1.60;;;25.90;99.90;;;;;;5013008;28;20177;-72
2023/12/02 01:46:17;;;;;;;3.13;1.50;;;25.90;99.90;;;;;;5013075;28;20224;-73
2023/12/02 01:48:46;;;;;;;6.33;2.10;;;26.00;99.90;;;;;;5012977;28;20248;-72
2023/12/02 01:51:13;;;;;;;5.67;1.97;;;26.00;99.90;;;;;;5012833;28;20206;-72
2023/12/02 01:53:41;;;;;;;3.03;1.80;;;26.40;99.90;;;;;;5024681;28;20192;-77
2023/12/02 01:56:10;;;;;;;4.23;1.50;;;26.30;99.90;;;;;;5013968;28;20189;-75
2023/12/02 01:58:38;;;;;;;5.00;1.90;;;26.50;99.90;;;;;;4997374;28;20190;-73
2023/12/02 02:01:06;;;;;;;3.67;1.70;;;26.50;99.90;;;;;;5025977;28;20189;-74
2023/12/02 02:03:34;;;;;;;3.57;1.80;;;26.60;99.90;;;;;;5034321;28;20475;-78
2023/12/02 02:06:02;;;;;;;5.97;1.87;;;26.70;99.90;;;;;;5029582;28;20204;-77
2023/12/02 02:08:30;;;;;;;3.57;1.40;;;26.80;99.90;;;;;;5031963;28;20221;-81
2023/12/02 02:10:58;;;;;;;3.97;1.90;;;27.10;99.90;;;;;;5034730;28;20597;-77
2023/12/02 02:13:27;;;;;;;4.00;1.73;;;27.20;99.90;;;;;;5034672;28;20256;-77
2023/12/02 02:15:56;;;;;;;4.43;1.60;;;27.30;99.90;;;;;;5030575;28;20188;-78
2023/12/02 02:18:23;;;;;;;5.17;1.50;;;27.50;99.90;;;;;;5014945;28;20182;-76
2023/12/02 02:20:52;;;;;;;4.03;1.70;;;27.40;99.90;;;;;;5014800;28;20174;-76
2023/12/02 02:23:22;;;;;;;2.27;1.30;;;27.60;99.90;;;;;;5014207;28;20327;-76
2023/12/02 02:26:05;;;;;;;3.23;1.37;;;27.70;99.90;;;;;;5014651;28;20175;-76
2023/12/02 02:28:33;;;;;;;4.17;1.67;;;27.70;99.90;;;;;;5024005;28;20208;-76
2023/12/02 02:31:00;;;;;;;7.27;1.63;;;27.60;99.90;;;;;;5014383;28;20284;-75
2023/12/02 02:33:34;;;;;;;2.77;1.50;;;27.70;99.90;;;;;;5014722;28;20176;-75
2023/12/02 02:36:38;;;;;;;2.67;1.50;;;27.60;99.90;;;;;;5018599;28;20181;-76
2023/12/02 02:42:28;;;;;;;5.13;1.67;;;27.80;99.90;;;;;;5033820;28;20189;-74
2023/12/02 02:44:56;;;;;;;5.40;1.67;;;27.90;99.90;;;;;;5033757;28;20631;-75
2023/12/02 02:47:23;;;;;;;3.27;1.77;;;28.00;99.90;;;;;;5028625;28;20209;-74
2023/12/02 02:49:51;;;;;;;2.77;1.47;;;28.00;99.90;;;;;;5014402;28;20210;-74
2023/12/02 02:52:19;;;;;;;2.93;1.60;;;28.00;99.90;;;;;;5015279;28;20178;-75
2023/12/02 02:54:46;;;;;;;3.67;1.87;;;28.10;99.90;;;;;;5032486;28;20665;-75
2023/12/02 02:57:14;;;;;;;4.20;1.93;;;28.30;99.90;;;;;;5033807;28;20180;-75
2023/12/02 02:59:42;;;;;;;5.10;1.67;;;28.80;99.90;;;;;;5033553;28;20177;-75
2023/12/02 03:02:09;;;;;;;2.73;1.80;;;29.40;99.90;;;;;;5032513;28;20173;-75
2023/12/02 03:11:12;;;;;;;6.40;1.70;;;28.40;99.90;;;;;;5025174;28;20571;-70
2023/12/02 03:13:40;;;;;;;5.47;1.87;;;28.30;99.90;;;;;;5029371;28;20306;-70
2023/12/02 03:16:08;;;;;;;3.23;1.77;;;29.10;99.90;;;;;;5033479;28;20177;-71
2023/12/02 03:18:35;;;;;;;4.47;1.73;;;29.60;99.90;;;;;;5033737;28;20637;-71
2023/12/02 03:21:06;;;;;;;3.90;1.87;;;29.90;99.90;;;;;;5033964;28;20178;-72
2023/12/02 03:23:34;;;;;;;4.00;1.60;;;30.70;99.90;;;;;;5032598;28;20197;-71
2023/12/02 03:26:02;;;;;;;4.70;1.50;;;30.90;99.90;;;;;;5034723;28;20637;-71
2023/12/02 03:28:30;;;;;;;5.65;1.40;;;30.70;99.90;;;;;;5035054;28;20177;-71
2023/12/02 03:30:58;;;;;;;3.27;1.20;;;30.20;99.90;;;;;;5035480;28;20584;-71
2023/12/02 03:33:25;;;;;;;2.50;1.40;;;30.20;99.90;;;;;;5034214;28;20301;-71
2023/12/02 03:35:53;;;;;;;3.17;1.20;;;30.50;99.90;;;;;;5034699;28;20181;-71
2023/12/02 03:38:21;;;;;;;4.27;1.27;;;31.10;99.90;;;;;;5034609;28;20545;-71
2023/12/02 03:40:48;;;;;;;3.27;1.40;;;31.30;99.90;;;;;;5034356;28;20189;-70
2023/12/02 03:43:16;;;;;;;5.90;1.80;;;30.90;99.90;;;;;;5033182;28;20178;-70
2023/12/02 03:45:44;;;;;;;3.23;1.50;;;30.80;99.90;;;;;;5034354;28;20177;-71
2023/12/02 03:48:12;;;;;;;3.57;1.30;;;30.20;99.90;;;;;;5017899;28;20212;-70
2023/12/02 03:50:40;;;;;;;6.70;1.50;;;29.60;99.90;;;;;;5025536;28;20656;-70
2023/12/02 03:53:07;;;;;;;2.43;1.40;;;29.50;99.90;;;;;;5032182;28;20211;-70
2023/12/02 03:55:35;;;;;;;3.53;1.43;;;29.40;99.90;;;;;;5032538;28;20185;-69
2023/12/02 03:58:03;;;;;;;2.90;1.60;;;29.70;99.90;;;;;;5034349;28;20184;-69
2023/12/02 04:00:30;;;;;;;4.77;1.30;;;30.00;99.90;;;;;;5032210;28;20193;-68
2023/12/02 04:02:59;;;;;;;3.72;1.58;;;29.90;99.90;;;;;;5032377;28;20188;-69
2023/12/02 04:08:49;;;;;;;4.23;1.17;;;30.00;99.90;;;;;;5026491;28;20192;-70
2023/12/02 04:11:17;;;;;;;3.80;1.20;;;30.80;99.90;;;;;;5031485;28;20189;-70
2023/12/02 04:13:44;;;;;;;2.77;1.37;;;30.80;99.90;;;;;;5032010;28;20237;-70
2023/12/02 04:16:12;;;;;;;4.10;1.20;;;30.70;99.90;;;;;;5032229;28;20610;-70
2023/12/02 04:18:46;;;;;;;4.30;1.63;;;30.20;99.90;;;;;;5031451;28;20544;-70
2023/12/02 04:21:14;;;;;;;3.33;1.20;;;30.30;99.90;;;;;;5032190;28;20185;-70
2023/12/02 04:23:41;;;;;;;4.60;1.80;;;30.00;99.90;;;;;;5031722;28;20276;-70
2023/12/02 04:26:10;;;;;;;3.87;1.20;;;29.80;99.90;;;;;;5031497;28;20197;-69
2023/12/02 04:28:37;;;;;;;1.40;1.00;;;29.80;99.90;;;;;;5031506;28;20185;-69
2023/12/02 04:31:05;;;;;;;5.27;1.20;;;29.80;99.90;;;;;;5032009;28;20189;-70
2023/12/02 04:33:33;;;;;;;2.50;1.10;;;29.80;99.90;;;;;;5030258;28;20271;-69
2023/12/02 04:36:01;;;;;;;2.00;0.80;;;29.50;99.90;;;;;;5032147;28;20173;-69
2023/12/02 04:38:28;;;;;;;4.43;1.47;;;29.50;99.90;;;;;;5030579;28;20174;-69
2023/12/02 04:44:18;;;;;;;5.83;1.70;;;29.20;99.90;;;;;;5031097;28;20199;-70
2023/12/02 04:46:46;;;;;;;8.53;1.70;;;29.00;99.90;;;;;;5031578;28;20299;-69
2023/12/02 04:49:14;;;;;;;5.20;1.57;;;28.80;99.90;;;;;;5030549;28;20528;-69
2023/12/02 04:51:41;;;;;;;5.37;1.50;;;28.80;99.90;;;;;;5031762;28;20261;-69
2023/12/02 04:54:10;;;;;;;4.80;1.60;;;28.70;99.90;;;;;;5030174;28;20185;-70
2023/12/02 04:56:38;;;;;;;7.13;1.43;;;28.50;99.90;;;;;;5031232;28;20184;-70
2023/12/02 04:59:06;;;;;;;6.73;1.60;;;28.40;99.90;;;;;;5031318;28;20609;-70
2023/12/02 05:01:33;;;;;;;6.93;2.00;;;28.60;99.90;;;;;;5031576;28;20205;-69
2023/12/02 05:04:01;;;;;;;5.10;1.90;;;28.80;99.90;;;;;;5030925;28;20209;-70
2023/12/02 05:06:29;;;;;;;4.57;1.60;;;28.50;99.90;;;;;;5031629;28;20177;-69
2023/12/02 05:08:57;;;;;;;5.23;2.10;;;28.20;99.90;;;;;;5030953;28;20184;-69
2023/12/02 05:11:25;;;;;;;4.50;1.50;;;27.80;99.90;;;;;;5030737;28;20232;-70
2023/12/02 05:13:52;;;;;;;6.23;1.83;;;27.80;99.90;;;;;;5031857;28;20178;-70
2023/12/02 05:16:21;;;;;;;5.53;1.50;;;28.00;99.90;;;;;;5031559;28;20280;-70
2023/12/02 05:18:48;;;;;;;6.47;1.53;;;27.90;99.90;;;;;;5030911;28;20264;-70
2023/12/02 05:21:18;;;;;;;6.37;2.00;;;27.80;99.90;;;;;;5031590;28;20173;-70
2023/12/02 05:23:46;;;;;;;6.50;2.03;;;27.60;99.90;;;;;;5031306;28;20181;-69
2023/12/02 05:26:13;;;;;;;5.13;1.70;;;28.10;99.90;;;;;;5030850;28;20736;-70
2023/12/02 05:28:41;;;;;;;5.87;2.20;;;28.60;99.90;;;;;;5030965;28;20235;-70
2023/12/02 05:31:09;;;;;;;8.23;2.17;;;28.50;99.90;;;;;;5030528;28;20180;-70
2023/12/02 05:33:37;;;;;;;6.13;1.83;;;28.40;99.90;;;;;;5030675;28;20216;-70
2023/12/02 05:36:05;;;;;;;5.77;1.80;;;28.30;99.90;;;;;;5034249;28;20208;-70
2023/12/02 05:38:33;;;;;;;4.30;1.60;;;28.70;99.90;;;;;;5035233;28;20661;-70
2023/12/02 05:41:03;;;;;;;6.97;2.27;;;28.90;99.90;;;;;;5034871;28;20613;-70
2023/12/02 05:43:31;;;;;;;5.33;1.33;;;28.80;99.90;;;;;;5034674;28;20177;-70
2023/12/02 05:45:59;;;;;;;7.67;1.87;;;28.90;99.90;;;;;;5035278;28;20264;-70
2023/12/02 05:48:27;;;;;;;6.53;1.73;;;28.40;99.90;;;;;;5034554;28;20596;-70
2023/12/02 05:50:54;;;;;;;4.53;1.90;;;27.80;99.90;;;;;;5035182;28;20204;-70
2023/12/02 05:53:23;;;;;;;5.93;2.20;;;27.80;99.90;;;;;;5023961;28;20178;-71
2023/12/02 05:55:50;;;;;;;8.77;2.03;;;27.30;99.90;;;;;;5034176;28;20243;-69
2023/12/02 06:01:40;;;;;;;5.77;2.13;;;26.80;99.90;;;;;;5034206;28;20188;-71
2023/12/02 06:04:08;;;;;;;4.93;2.07;;;26.70;99.90;;;;;;5034857;28;20189;-70
2023/12/02 06:06:35;;;;;;;4.60;1.60;;;27.40;99.90;;;;;;5034831;28;20169;-70
2023/12/02 06:09:03;;;;;;;7.33;1.97;;;27.30;99.90;;;;;;5034319;28;20213;-70
2023/12/02 06:11:31;;;;;;;5.60;2.10;;;26.70;99.90;;;;;;5034349;28;20181;-70
2023/12/02 06:13:59;;;;;;;7.50;1.80;;;26.40;99.90;;;;;;5034889;28;20185;-69
2023/12/02 06:16:26;;;;;;;6.37;2.10;;;26.40;99.90;;;;;;5034397;28;20264;-69
2023/12/02 06:18:54;;;;;;;6.13;1.53;;;26.80;99.90;;;;;;5033906;28;21673;-70
2023/12/02 06:21:22;;;;;;;5.60;1.73;;;27.10;99.90;;;;;;5034500;28;20674;-70
2023/12/02 06:23:50;;;;;;;8.43;2.00;;;27.20;99.90;;;;;;5034518;28;20576;-70
2023/12/02 06:26:18;;;;;;;5.17;1.87;;;27.50;99.90;;;;;;5034252;28;20177;-71
2023/12/02 06:28:49;;;;;;;7.77;2.10;;;27.50;99.90;;;;;;5034248;28;20169;-70
2023/12/02 06:31:17;;;;;;;5.43;1.70;;;27.30;99.90;;;;;;5033928;28;20251;-70
2023/12/02 06:33:45;;;;;;;5.27;1.50;;;27.20;99.90;;;;;;5034328;28;20260;-70
2023/12/02 06:36:14;;;;;;;3.97;1.50;;;27.00;99.90;;;;;;5034023;28;20177;-70
2023/12/02 06:38:41;;;;;;;5.30;1.53;;;27.20;99.90;;;;;;5033864;28;20642;-70
2023/12/02 06:41:09;;;;;;;5.97;1.90;;;27.20;99.90;;;;;;5033705;28;20251;-70
2023/12/02 06:43:37;;;;;;;6.30;1.73;;;27.10;99.90;;;;;;5033998;28;20185;-70
2023/12/02 06:46:05;;;;;;;7.10;1.97;;;26.70;99.90;;;;;;5031633;28;20177;-70
2023/12/02 06:48:34;;;;;;;5.77;1.70;;;26.70;99.90;;;;;;5034004;28;20189;-71
2023/12/02 06:54:27;;;;;;;5.50;1.67;;;26.50;99.90;;;;;;5015446;28;20217;-70
2023/12/02 06:56:58;;;;;;;6.40;1.50;;;26.30;99.90;;;;;;5018508;28;20186;-71
2023/12/02 06:59:35;;;;;;;8.10;1.67;;;26.40;99.90;;;;;;5035020;28;20689;-71
2023/12/02 07:02:08;;;;;;;6.23;1.63;;;26.00;99.90;;;;;;5034609;28;20268;-71
2023/12/02 07:04:36;;;;;;;4.83;2.07;;;25.90;99.90;;;;;;5034769;28;20185;-71
2023/12/02 07:07:07;;;;;;;5.70;1.50;;;26.00;99.90;;;;;;5051308;28;20193;-70
2023/12/02 07:09:35;;;;;;;8.07;2.30;;;26.00;99.90;;;;;;5034903;28;20620;-71
2023/12/02 07:12:08;;;;;;;6.00;1.80;;;26.00;99.90;;;;;;5035700;28;20236;-72
2023/12/02 07:14:36;;;;;;;8.50;1.80;;;25.50;99.90;;;;;;5034120;28;20208;-71
2023/12/02 07:17:04;;;;;;;6.23;1.40;;;25.10;99.90;;;;;;5034128;28;20204;-71
2023/12/02 07:19:36;;;;;;;4.60;1.97;;;25.00;99.90;;;;;;5035333;28;20211;-71
2023/12/02 07:22:04;;;;;;;5.50;2.03;;;25.20;99.90;;;;;;5034960;28;20216;-70
2023/12/02 07:24:32;;;;;;;8.00;2.20;;;25.30;99.90;;;;;;5033183;28;20185;-71
2023/12/02 07:27:00;;;;;;;7.77;2.00;;;25.50;99.90;;;;;;5053291;28;20625;-72
2023/12/02 07:29:31;;;;;;;7.73;1.90;;;25.50;99.90;;;;;;5034289;28;20670;-72
2023/12/02 07:31:59;;;;;;;4.90;1.87;;;25.70;99.90;;;;;;5034249;28;20242;-71
2023/12/02 07:34:28;;;;;;;4.20;1.87;;;25.60;99.90;;;;;;5027257;28;20196;-71
2023/12/02 07:36:56;;;;;;;8.37;1.83;;;25.50;99.90;;;;;;5046730;28;20182;-71
2023/12/02 07:39:27;;;;;;;7.30;2.23;;;25.50;99.90;;;;;;5034805;28;20184;-71
2023/12/02 07:41:54;;;;;;;4.83;2.00;;;25.50;99.90;;;;;;5050249;28;20216;-71
2023/12/02 07:44:22;;;;;;;4.93;1.90;;;25.60;99.90;;;;;;5034676;28;20173;-71
2023/12/02 07:46:50;;;;;;;8.67;2.07;;;25.70;99.90;;;;;;5034554;28;20169;-71
2023/12/02 07:49:17;;;;;;;5.47;1.67;;;25.50;99.90;;;;;;5034311;28;20250;-71
2023/12/02 07:51:45;;;;;;;7.40;2.27;;;25.10;99.90;;;;;;5030489;28;20210;-72
2023/12/02 07:54:13;;;;;;;7.27;1.97;;;25.10;99.90;;;;;;5032594;28;20232;-70
2023/12/02 07:56:41;;;;;;;6.67;2.00;;;25.00;99.90;;;;;;5034187;28;20219;-69
2023/12/02 07:59:09;;;;;;;4.83;1.70;;;25.00;99.90;;;;;;5034031;28;20169;-70
2023/12/02 08:01:36;;;;;;;7.47;1.93;;;25.00;99.90;;;;;;5032848;28;20182;-70
2023/12/02 08:04:04;;;;;;;6.07;1.90;;;25.00;99.90;;;;;;5033912;28;20650;-70
2023/12/02 08:06:36;;;;;;;6.20;2.20;;;24.90;99.90;;;;;;5028280;28;20193;-72
2023/12/02 08:09:04;;;;;;;8.03;2.03;;;24.80;99.90;;;;;;5033982;28;20201;-73
2023/12/02 08:11:32;;;;;;;5.93;2.10;;;24.70;99.90;;;;;;5034131;28;20188;-73
2023/12/02 08:14:00;;;;;;;5.73;1.90;;;24.60;99.90;;;;;;5034612;28;20231;-73
2023/12/02 08:16:28;;;;;;;4.50;1.90;;;24.40;99.90;;;;;;5034630;28;20539;-73
2023/12/02 08:18:55;;;;;;;8.53;2.30;;;24.40;99.90;;;;;;5033818;28;20188;-73
2023/12/02 08:21:23;;;;;;;7.07;1.83;;;24.20;99.90;;;;;;5034155;28;20170;-73
2023/12/02 08:23:51;;;;;;;12.40;2.13;;;24.10;99.90;;;;;;5033790;28;20173;-73
2023/12/02 08:26:19;;;;;;;5.50;2.13;;;23.90;99.90;;;;;;5034271;28;20169;-73
2023/12/02 08:28:48;;;;;;;6.80;1.90;;;23.90;99.90;;;;;;5034007;28;20176;-73
2023/12/02 08:31:16;;;;;;;9.57;2.10;;;23.80;99.90;;;;;;5034669;28;20193;-73
2023/12/02 08:33:44;;;;;;;5.07;2.30;;;23.70;99.90;;;;;;5034490;28;20173;-73
2023/12/02 08:36:15;;;;;;;10.00;2.20;;;23.50;99.90;;;;;;5035192;28;20190;-73
2023/12/02 08:38:42;;;;;;;8.73;2.23;;;23.40;99.90;;;;;;5035089;28;20184;-73
2023/12/02 08:41:11;;;;;;;5.67;2.10;;;23.30;99.90;;;;;;5034640;28;20255;-73
2023/12/02 08:43:41;;;;;;;6.93;2.17;;;23.20;99.90;;;;;;5034845;28;20189;-73
2023/12/02 08:46:17;;;;;;;6.13;2.17;;;23.20;99.90;;;;;;5034831;28;20476;-73
2023/12/02 08:48:46;;;;;;;11.67;2.77;;;23.10;99.90;;;;;;5035056;28;20536;-73
2023/12/02 08:51:14;;;;;;;5.77;2.57;;;23.10;99.90;;;;;;5050572;28;20223;-72
2023/12/02 08:53:42;;;;;;;8.47;1.80;;;23.10;99.90;;;;;;5034073;28;20268;-73
2023/12/02 08:56:10;;;;;;;12.20;2.40;;;23.10;99.90;;;;;;5034085;28;20242;-74
2023/12/02 08:59:17;;;;;;;8.13;2.27;;;23.10;99.90;;;;;;5034155;28;20220;-73
2023/12/02 09:01:44;;;;;;;6.33;2.20;;;23.10;99.90;;;;;;5049798;28;20637;-74
2023/12/02 09:04:12;;;;;;;5.73;2.10;;;23.00;99.90;;;;;;5034458;28;20201;-74
2023/12/02 09:06:40;;;;;;;6.50;2.47;;;23.00;99.90;;;;;;5034370;28;20185;-74
2023/12/02 09:09:07;;;;;;;7.50;2.03;;;22.90;99.90;;;;;;5032704;28;20201;-74
2023/12/02 09:11:35;;;;;;;7.67;2.40;;;23.00;99.90;;;;;;5033655;28;20177;-73
2023/12/02 09:14:06;;;;;;;9.00;2.27;;;22.80;99.90;;;;;;5033628;28;20184;-74
2023/12/02 09:16:34;;;;;;;5.57;2.40;;;22.80;99.90;;;;;;5033699;28;20177;-73
2023/12/02 09:19:20;;;;;;;9.83;2.37;;;22.80;99.90;;;;;;5033419;28;20550;-73
2023/12/02 09:21:48;;;;;;;12.47;2.80;;;22.90;99.90;;;;;;5033414;28;20222;-74
2023/12/02 09:24:38;;;;;;;10.37;3.33;;;22.90;99.90;;;;;;5048636;28;20177;-74
2023/12/02 09:27:09;;;;;;;8.87;3.10;;;22.90;99.90;;;;;;5033266;28;20516;-73
2023/12/02 09:29:43;;;;;;;8.30;2.93;;;22.90;99.90;;;;;;5033354;28;20251;-72
2023/12/02 09:32:59;;;;;;;6.13;2.60;;;23.00;99.90;;;;;;5032468;28;20181;-73
2023/12/02 09:35:26;;;;;;;10.43;2.40;;;23.00;99.90;;;;;;5026875;28;20311;-73
2023/12/02 09:37:56;;;;;;;5.87;1.83;;;23.00;99.90;;;;;;5032024;28;20669;-72
2023/12/02 09:40:30;;;;;;;0.50;0.50;;;22.70;99.90;;;;;;5031930;28;20221;-72
2023/12/02 09:43:36;;;;;;;2.00;0.80;;;21.80;99.90;;;;;;5033150;28;20647;-70
2023/12/02 09:46:16;;;;;;;3.77;0.87;;;21.20;99.90;;;;;;5012582;28;20238;-74
2023/12/02 09:49:21;;;;;;;1.57;0.60;;;20.60;99.90;;;;;;5020896;28;20201;-73
2023/12/02 09:52:20;;;;;;;3.23;0.50;;;20.20;99.90;;;;;;5023492;28;20572;-71
2023/12/02 09:55:11;;;;;;;4.30;1.77;;;20.00;99.90;;;;;;5013471;28;20530;-75
2023/12/02 09:58:31;;;;;;;14.30;2.33;;;19.80;99.90;;;;;;5015817;28;20237;-77
2023/12/02 10:01:30;;;;;;;7.93;2.20;;;19.50;99.90;;;;;;5021633;28;20202;-73
2023/12/02 10:04:32;;;;;;;6.53;2.00;;;19.30;99.90;;;;;;5033095;28;20177;-73
2023/12/02 10:07:29;;;;;;;4.70;1.50;;;19.20;99.90;;;;;;5033109;28;20173;-73
2023/12/02 10:10:10;;;;;;;7.37;1.47;;;19.10;99.90;;;;;;5024369;28;20693;-74
2023/12/02 10:13:05;;;;;;;4.67;1.43;;;19.10;99.90;;;;;;5030133;28;20586;-75
2023/12/02 10:15:35;;;;;;;5.00;1.40;;;19.20;99.90;;;;;;5012254;28;20186;-73
2023/12/02 10:18:23;;;;;;;1.60;1.10;;;19.20;99.90;;;;;;5013061;28;20209;-73
2023/12/02 10:21:01;;;;;;;4.40;1.60;;;19.30;99.90;;;;;;5024536;28;20175;-74
2023/12/02 10:24:01;;;;;;;3.27;1.47;;;19.40;99.90;;;;;;5035131;28;20196;-74
2023/12/02 10:26:33;;;;;;;3.03;1.63;;;19.40;99.90;;;;;;5028990;28;20196;-73
2023/12/02 10:29:17;;;;;;;4.20;1.30;;;19.50;99.90;;;;;;5035706;28;20524;-76
2023/12/02 10:32:04;;;;;;;7.53;1.70;;;19.40;99.90;;;;;;5035867;28;20247;-75
2023/12/02 10:34:59;;;;;;;3.00;1.23;;;19.40;99.90;;;;;;5036497;28;20185;-76
2023/12/02 10:37:42;;;;;;;6.27;1.17;;;19.40;99.90;;;;;;5032038;28;20203;-75
2023/12/02 10:40:12;;;;;;;3.17;1.20;;;19.40;99.90;;;;;;5035884;28;20216;-76
2023/12/02 10:42:49;;;;;;;2.27;1.40;;;19.40;99.90;;;;;;5035922;28;20196;-76
2023/12/02 10:45:17;;;;;;;4.10;1.80;;;19.40;99.90;;;;;;5036126;28;20168;-75
2023/12/02 10:47:48;;;;;;;3.27;1.60;;;19.40;99.90;;;;;;5035671;28;20200;-74
2023/12/02 10:50:18;;;;;;;4.20;1.77;;;19.50;99.90;;;;;;5017096;28;20208;-75
2023/12/02 10:53:06;;;;;;;1.93;1.23;;;19.30;99.90;;;;;;5035737;28;20641;-75
2023/12/02 10:55:37;;;;;;;2.83;1.60;;;19.20;99.90;;;;;;5035559;28;20184;-74
2023/12/02 10:58:06;;;;;;;6.87;1.60;;;19.20;99.90;;;;;;5035682;28;20238;-75
2023/12/02 11:00:36;;;;;;;4.20;1.27;;;19.10;99.90;;;;;;5035051;28;20270;-74
2023/12/02 11:03:10;;;;;;;4.77;1.50;;;19.20;99.90;;;;;;5035417;28;20177;-71
2023/12/02 11:06:05;;;;;;;2.87;1.70;;;19.20;99.90;;;;;;5035360;28;20239;-75
2023/12/02 11:08:44;;;;;;;2.97;1.20;;;19.10;99.90;;;;;;5035418;28;20213;-76
2023/12/02 11:11:21;;;;;;;2.53;1.53;;;19.10;99.90;;;;;;5035102;28;20226;-76
2023/12/02 11:13:50;;;;;;;3.20;1.50;;;19.10;99.90;;;;;;5035086;28;20193;-76
2023/12/02 11:16:20;;;;;;;3.03;1.93;;;19.20;99.90;;;;;;5033795;28;20219;-76
2023/12/02 11:19:10;;;;;;;3.93;1.70;;;19.10;99.90;;;;;;5035317;28;20177;-75
2023/12/02 11:22:19;;;;;;;3.63;1.57;;;19.10;99.90;;;;;;5034732;28;20518;-75
2023/12/02 11:24:49;;;;;;;7.93;1.50;;;19.00;99.90;;;;;;5025234;28;20662;-73
2023/12/02 11:27:20;;;;;;;4.03;1.60;;;18.80;99.90;;;;;;5032586;28;20272;-74
2023/12/02 11:30:19;;;;;;;6.53;1.87;;;18.80;99.90;;;;;;5034690;28;20698;-74
2023/12/02 11:33:10;;;;;;;4.07;1.70;;;18.70;99.90;;;;;;5019043;28;20192;-74
2023/12/02 11:36:06;;;;;;;5.77;1.77;;;18.50;99.90;;;;;;5034718;28;20228;-71
2023/12/02 11:38:33;;;;;;;7.07;1.57;;;18.50;99.90;;;;;;5034751;28;20375;-70
2023/12/02 11:41:33;;;;;;;3.87;1.67;;;18.40;99.90;;;;;;5034416;28;20202;-75
2023/12/02 11:44:17;;;;;;;4.20;1.53;;;18.20;99.90;;;;;;5034684;28;20169;-71
2023/12/02 11:46:59;;;;;;;3.90;1.57;;;18.20;99.90;;;;;;5034078;28;20228;-76
2023/12/02 11:49:57;;;;;;;2.63;1.90;;;18.30;99.90;;;;;;5034560;28;20213;-70
2023/12/02 11:52:34;;;;;;;2.33;1.53;;;18.20;99.90;;;;;;5034486;28;20185;-73
2023/12/02 11:55:36;;;;;;;4.03;1.87;;;18.10;99.90;;;;;;5025113;28;20181;-74
2023/12/02 11:58:24;;;;;;;6.13;1.50;;;18.00;99.90;;;;;;5017746;28;20185;-71
2023/12/02 12:01:16;;;;;;;4.77;1.50;;;18.20;99.90;;;;;;5026336;28;20232;-74
2023/12/02 12:04:09;;;;;;;3.83;1.43;;;18.10;99.90;;;;;;5024935;28;20691;-74
2023/12/02 12:07:11;;;;;;;6.10;1.50;;;18.10;99.90;;;;;;5024377;28;20188;-75
2023/12/02 12:10:00;;;;;;;3.13;1.30;;;18.20;99.90;;;;;;5027038;28;20202;-75
2023/12/02 12:12:31;;;;;;;5.47;1.30;;;18.10;99.90;;;;;;5034202;28;20221;-71
2023/12/02 12:15:03;;;;;;;6.30;1.40;;;18.10;99.90;;;;;;5033970;28;20647;-73
2023/12/02 12:17:31;;;;;;;4.63;1.40;;;18.00;99.90;;;;;;5033881;28;20181;-71
2023/12/02 12:20:15;;;;;;;4.40;1.40;;;18.10;99.90;;;;;;5033503;28;20177;-72
2023/12/02 12:22:42;;;;;;;4.67;1.40;;;18.10;99.90;;;;;;5027395;28;20327;-74
2023/12/02 12:25:10;;;;;;;7.00;1.50;;;18.10;99.90;;;;;;5028114;28;20177;-74
2023/12/02 12:27:39;;;;;;;3.03;1.33;;;18.00;99.90;;;;;;5033530;28;20188;-72
2023/12/02 12:30:08;;;;;;;2.73;1.10;;;18.00;99.90;;;;;;5033644;28;20263;-69
2023/12/02 12:32:37;;;;;;;6.27;1.47;;;17.90;99.90;;;;;;5033917;28;20181;-74
2023/12/02 12:35:17;;;;;;;6.43;1.27;;;17.90;99.90;;;;;;5033605;28;20186;-75
2023/12/02 12:37:45;;;;;;;5.37;1.63;;;17.80;99.90;;;;;;5032210;28;20533;-71
2023/12/02 12:40:14;;;;;;;6.67;1.70;;;17.80;99.90;;;;;;5029397;28;20188;-74
2023/12/02 12:42:48;;;;;;;5.13;1.63;;;17.80;99.90;;;;;;5019012;28;20540;-75
2023/12/02 12:45:17;;;;;;;6.53;1.43;;;17.70;99.90;;;;;;5013721;28;20178;-75
2023/12/02 12:47:45;;;;;;;3.50;1.20;;;17.70;99.90;;;;;;5025347;28;20240;-75
2023/12/02 12:50:19;;;;;;;2.03;1.10;;;17.70;99.90;;;;;;5033398;28;20257;-76
2023/12/02 12:52:52;;;;;;;4.20;1.50;;;17.70;99.90;;;;;;5032259;28;20260;-73
2023/12/02 12:55:22;;;;;;;4.37;1.70;;;17.70;99.90;;;;;;5020374;28;20181;-72
2023/12/02 12:58:08;;;;;;;5.23;1.50;;;17.70;99.90;;;;;;5027795;28;20229;-73
2023/12/02 13:00:39;;;;;;;5.77;1.40;;;17.70;99.90;;;;;;5016502;28;20269;-72
2023/12/02 13:03:12;;;;;;;3.33;1.50;;;17.60;99.90;;;;;;5023778;28;20264;-75
2023/12/02 13:05:45;;;;;;;8.33;1.50;;;17.50;99.90;;;;;;5033579;28;20185;-69
2023/12/02 13:08:25;;;;;;;2.37;1.23;;;17.50;99.90;;;;;;5032875;28;20216;-75
2023/12/02 13:10:59;;;;;;;7.70;1.50;;;17.50;99.90;;;;;;5033379;28;20216;-72
2023/12/02 13:13:30;;;;;;;6.80;2.00;;;17.50;99.90;;;;;;5033376;28;20614;-72
2023/12/02 13:16:02;;;;;;;5.33;1.60;;;17.50;99.90;;;;;;5033230;28;20541;-71
2023/12/02 13:18:31;;;;;;;3.70;1.80;;;17.50;99.90;;;;;;5032815;28;20185;-70
2023/12/02 13:21:00;;;;;;;5.97;1.70;;;17.50;99.90;;;;;;5033109;28;20256;-69
2023/12/02 13:23:27;;;;;;;5.57;1.80;;;17.50;99.90;;;;;;5031856;28;20183;-72
2023/12/02 13:26:00;;;;;;;8.10;1.50;;;17.40;99.90;;;;;;5033220;28;20232;-71
2023/12/02 13:28:37;;;;;;;4.83;1.97;;;17.50;99.90;;;;;;5032040;28;20188;-71
2023/12/02 13:31:13;;;;;;;7.37;1.40;;;17.40;99.90;;;;;;5033075;28;20229;-74
2023/12/02 13:34:02;;;;;;;7.07;1.60;;;17.30;99.90;;;;;;5032964;28;20618;-74
2023/12/02 13:36:56;;;;;;;6.67;2.50;;;17.30;99.90;;;;;;5032718;28;20218;-74
2023/12/02 13:39:35;;;;;;;9.23;2.70;;;17.30;99.90;;;;;;5032157;28;20197;-73
2023/12/02 13:42:14;;;;;;;7.67;3.60;;;17.20;99.90;;;;;;5013190;28;20262;-71